createdAt,value
2023-03-27T00:01:25.973Z,8.07
2023-03-27T00:03:53.745Z,7.55
2023-03-27T00:06:21.996Z,8.68
2023-03-27T00:08:53.619Z,6.45
2023-03-27T00:11:22.339Z,7.45
2023-03-27T00:13:56.071Z,6.97
2023-03-27T00:16:25.507Z,7.35
2023-03-27T00:18:53.415Z,10.73
2023-03-27T00:21:22.508Z,15.45
2023-03-27T00:23:50.000Z,7.65
2023-03-27T00:26:17.373Z,11.10
2023-03-27T00:28:44.807Z,12.48
2023-03-27T00:31:13.317Z,10.40
2023-03-27T00:33:41.447Z,9.38
2023-03-27T00:36:09.575Z,9.90
2023-03-27T00:38:39.612Z,10.93
2023-03-27T00:41:07.787Z,9.63
2023-03-27T00:43:35.938Z,9.07
2023-03-27T00:46:22.346Z,9.40
2023-03-27T00:48:51.674Z,7.22
2023-03-27T00:51:20.499Z,11.10
2023-03-27T00:53:48.336Z,7.65
2023-03-27T00:56:16.635Z,9.73
2023-03-27T00:58:49.621Z,5.63
2023-03-27T01:01:18.301Z,6.00
2023-03-27T01:03:47.861Z,11.30
2023-03-27T01:06:17.244Z,7.07
2023-03-27T01:08:47.642Z,7.47
2023-03-27T01:11:18.085Z,8.15
2023-03-27T01:13:53.431Z,7.07
2023-03-27T01:16:28.677Z,5.13
2023-03-27T01:19:00.418Z,8.20
2023-03-27T01:21:47.766Z,5.18
2023-03-27T01:24:28.400Z,6.47
2023-03-27T01:26:58.029Z,7.35
2023-03-27T01:29:26.301Z,5.32
2023-03-27T01:32:12.487Z,5.00
2023-03-27T01:35:01.257Z,5.35
2023-03-27T01:37:33.704Z,6.70
2023-03-27T01:40:01.118Z,5.63
2023-03-27T01:42:39.689Z,5.13
2023-03-27T01:45:20.386Z,4.90
2023-03-27T01:47:57.172Z,6.35
2023-03-27T01:50:28.472Z,6.38
2023-03-27T01:53:16.197Z,6.22
2023-03-27T01:55:46.731Z,6.75
2023-03-27T01:58:17.494Z,6.78
2023-03-27T02:00:51.973Z,8.07
2023-03-27T02:03:36.740Z,6.68
2023-03-27T02:06:07.849Z,6.65
2023-03-27T02:08:39.734Z,4.43
2023-03-27T02:11:15.428Z,4.43
2023-03-27T02:13:45.269Z,5.10
2023-03-27T02:16:15.688Z,4.88
2023-03-27T02:18:47.714Z,4.72
2023-03-27T02:21:16.590Z,5.07
2023-03-27T02:23:44.867Z,5.38
2023-03-27T02:26:14.081Z,5.80
2023-03-27T02:28:47.590Z,7.22
2023-03-27T02:31:32.750Z,5.32
2023-03-27T02:34:02.675Z,6.38
2023-03-27T02:36:45.868Z,7.63
2023-03-27T02:39:17.275Z,6.45
2023-03-27T02:41:44.776Z,5.53
2023-03-27T02:44:57.348Z,5.95
2023-03-27T02:47:31.644Z,6.43
2023-03-27T02:50:03.993Z,4.97
2023-03-27T02:52:48.182Z,4.75
2023-03-27T02:55:19.051Z,5.30
2023-03-27T02:57:52.075Z,3.90
2023-03-27T03:00:37.524Z,4.65
2023-03-27T03:03:34.433Z,6.45
2023-03-27T03:06:11.131Z,5.75
2023-03-27T03:08:39.454Z,4.85
2023-03-27T03:11:11.420Z,4.40
2023-03-27T03:13:41.066Z,6.22
2023-03-27T03:16:09.928Z,6.80
2023-03-27T03:18:37.431Z,4.70
2023-03-27T03:21:05.850Z,6.30
2023-03-27T03:23:34.012Z,6.75
2023-03-27T03:26:03.870Z,4.93
2023-03-27T03:28:59.855Z,5.05
2023-03-27T03:31:43.258Z,4.65
2023-03-27T03:34:16.373Z,4.70
2023-03-27T03:36:45.110Z,6.05
2023-03-27T03:39:12.878Z,6.32
2023-03-27T03:41:41.571Z,4.82
2023-03-27T03:44:10.428Z,4.68
2023-03-27T03:46:39.200Z,3.70
2023-03-27T03:49:07.042Z,4.88
2023-03-27T03:51:35.797Z,5.43
2023-03-27T03:54:05.442Z,5.00
2023-03-27T03:56:34.542Z,3.85
2023-03-27T03:59:02.324Z,4.13
2023-03-27T04:01:31.541Z,5.28
2023-03-27T04:04:02.429Z,4.07
2023-03-27T04:06:46.172Z,3.65
2023-03-27T04:09:13.772Z,4.28
2023-03-27T04:12:01.767Z,3.97
2023-03-27T04:14:48.023Z,4.75
2023-03-27T04:17:35.523Z,4.10
2023-03-27T04:20:06.001Z,3.00
2023-03-27T04:22:38.107Z,2.55
2023-03-27T04:25:09.044Z,3.65
2023-03-27T04:27:36.509Z,4.47
2023-03-27T04:30:22.208Z,3.72
2023-03-27T04:33:25.753Z,4.43
2023-03-27T04:36:06.360Z,5.00
2023-03-27T04:39:02.392Z,4.18
2023-03-27T04:41:32.703Z,3.38
2023-03-27T04:44:00.328Z,3.58
2023-03-27T04:46:29.286Z,5.60
2023-03-27T04:49:02.309Z,4.13
2023-03-27T04:51:56.758Z,4.35
2023-03-27T04:54:31.779Z,3.63
2023-03-27T04:57:01.900Z,4.70
2023-03-27T04:59:33.558Z,3.72
2023-03-27T05:02:31.286Z,3.92
2023-03-27T05:05:14.488Z,4.22
2023-03-27T05:07:45.617Z,5.40
2023-03-27T05:10:17.617Z,3.60
2023-03-27T05:12:51.583Z,4.60
2023-03-27T05:15:20.015Z,2.63
2023-03-27T05:17:54.946Z,4.85
2023-03-27T05:20:25.587Z,4.57
2023-03-27T05:22:56.846Z,3.65
2023-03-27T05:25:29.266Z,7.80
2023-03-27T05:27:58.035Z,4.70
2023-03-27T05:30:29.411Z,4.47
2023-03-27T05:33:14.052Z,3.60
2023-03-27T05:35:48.270Z,4.22
2023-03-27T05:38:16.958Z,4.43
2023-03-27T05:41:12.546Z,3.90
2023-03-27T05:43:46.021Z,6.80
2023-03-27T05:46:21.344Z,5.05
2023-03-27T05:49:05.216Z,6.40
2023-03-27T05:51:33.387Z,5.70
2023-03-27T05:54:01.043Z,3.17
2023-03-27T05:56:39.334Z,4.10
2023-03-27T05:59:07.022Z,3.92
2023-03-27T06:01:36.603Z,5.25
2023-03-27T06:04:05.248Z,3.83
2023-03-27T06:06:50.748Z,3.75
2023-03-27T06:09:18.292Z,2.40
2023-03-27T06:12:02.960Z,2.58
2023-03-27T06:14:35.207Z,4.10
2023-03-27T06:17:22.858Z,3.67
2023-03-27T06:19:57.137Z,6.53
2023-03-27T06:22:24.863Z,4.13
2023-03-27T06:24:53.893Z,5.15
2023-03-27T06:27:22.260Z,3.83
2023-03-27T06:29:49.743Z,4.05
2023-03-27T06:32:17.438Z,4.47
2023-03-27T06:34:50.813Z,4.72
2023-03-27T06:37:36.931Z,3.28
2023-03-27T06:40:09.690Z,5.65
2023-03-27T06:42:38.746Z,4.28
2023-03-27T06:45:26.166Z,4.43
2023-03-27T06:48:24.338Z,3.50
2023-03-27T06:50:58.052Z,4.93
2023-03-27T06:53:28.367Z,3.95
2023-03-27T06:55:57.450Z,5.63
2023-03-27T06:58:27.432Z,4.25
2023-03-27T07:00:56.072Z,3.25
2023-03-27T07:03:23.603Z,4.43
2023-03-27T07:06:01.088Z,4.50
2023-03-27T07:08:34.667Z,4.75
2023-03-27T07:13:35.920Z,3.15
2023-03-27T07:16:07.105Z,3.42
2023-03-27T07:18:34.702Z,4.97
2023-03-27T07:21:02.086Z,5.40
2023-03-27T07:23:30.010Z,3.28
2023-03-27T07:26:04.059Z,7.05
2023-03-27T07:28:51.790Z,5.45
2023-03-27T07:31:33.062Z,4.82
2023-03-27T07:34:09.111Z,5.28
2023-03-27T07:37:08.691Z,3.90
2023-03-27T07:39:39.347Z,4.18
2023-03-27T07:42:07.431Z,8.40
2023-03-27T07:44:54.986Z,8.40
2023-03-27T07:47:22.597Z,4.68
2023-03-27T07:49:50.031Z,5.35
2023-03-27T07:52:22.287Z,5.85
2023-03-27T07:54:59.054Z,4.70
2023-03-27T07:57:45.942Z,7.03
2023-03-27T08:00:25.482Z,7.03
2023-03-27T08:03:11.826Z,6.50
2023-03-27T08:05:44.285Z,5.28
2023-03-27T08:08:14.431Z,5.05
2023-03-27T08:10:47.373Z,5.68
2023-03-27T08:13:18.339Z,7.50
2023-03-27T08:15:46.643Z,6.95
2023-03-27T08:18:22.850Z,6.82
2023-03-27T08:20:55.704Z,7.07
2023-03-27T08:23:27.207Z,5.75
2023-03-27T08:26:18.163Z,12.77
2023-03-27T08:28:56.471Z,8.13
2023-03-27T08:31:30.610Z,9.52
2023-03-27T08:34:02.882Z,6.80
2023-03-27T08:36:40.017Z,8.23
2023-03-27T08:39:08.245Z,8.75
2023-03-27T08:41:55.097Z,8.02
2023-03-27T08:44:31.611Z,8.07
2023-03-27T08:47:03.243Z,5.97
2023-03-27T08:49:35.765Z,6.00
2023-03-27T08:52:32.318Z,8.65
2023-03-27T08:55:06.333Z,7.63
2023-03-27T08:57:38.588Z,7.07
2023-03-27T09:00:21.461Z,5.97
2023-03-27T09:02:54.813Z,6.68
2023-03-27T09:05:24.335Z,6.00
2023-03-27T09:07:59.962Z,5.40
2023-03-27T09:10:32.266Z,4.00
2023-03-27T09:13:04.449Z,5.95
2023-03-27T09:15:39.565Z,4.65
2023-03-27T09:18:13.266Z,8.48
2023-03-27T09:20:46.954Z,6.68
2023-03-27T09:23:14.336Z,5.60
2023-03-27T09:26:08.065Z,7.63
2023-03-27T09:29:01.485Z,7.00
2023-03-27T09:31:35.148Z,5.47
2023-03-27T09:34:09.012Z,3.92
2023-03-27T09:36:36.441Z,3.40
2023-03-27T09:39:07.632Z,6.97
2023-03-27T09:41:42.609Z,5.72
2023-03-27T09:44:12.487Z,5.78
2023-03-27T09:46:44.868Z,4.32
2023-03-27T09:49:14.266Z,7.85
2023-03-27T09:51:49.509Z,5.57
2023-03-27T09:54:54.076Z,3.72
2023-03-27T09:57:47.768Z,4.70
2023-03-27T10:00:27.927Z,4.75
2023-03-27T10:03:08.153Z,3.05
2023-03-27T10:05:39.730Z,6.03
2023-03-27T10:08:28.674Z,3.42
2023-03-27T10:11:08.625Z,5.20
2023-03-27T10:13:44.428Z,4.50
2023-03-27T10:16:12.038Z,4.22
2023-03-27T10:18:53.555Z,6.30
2023-03-27T10:21:21.958Z,4.70
2023-03-27T10:23:50.319Z,3.97
2023-03-27T10:26:28.780Z,3.65
2023-03-27T10:29:01.568Z,4.22
2023-03-27T10:31:38.333Z,4.50
2023-03-27T10:34:32.701Z,4.45
2023-03-27T10:37:29.909Z,4.28
2023-03-27T10:40:21.388Z,3.97
2023-03-27T10:42:55.897Z,3.15
2023-03-27T10:45:24.303Z,4.10
2023-03-27T10:47:59.114Z,3.72
2023-03-27T10:50:38.445Z,9.88
2023-03-27T10:53:06.207Z,6.18
2023-03-27T10:55:56.900Z,3.88
2023-03-27T10:58:24.649Z,3.08
2023-03-27T11:00:57.431Z,7.07
2023-03-27T11:03:55.677Z,5.10
2023-03-27T11:06:27.247Z,3.20
2023-03-27T11:09:05.822Z,4.53
2023-03-27T11:11:39.648Z,3.42
2023-03-27T11:14:27.590Z,5.03
2023-03-27T11:16:57.583Z,4.28
2023-03-27T11:19:54.668Z,4.35
2023-03-27T11:22:30.716Z,3.75
2023-03-27T11:25:05.901Z,6.33
2023-03-27T11:27:37.428Z,6.40
2023-03-27T11:30:20.329Z,9.73
2023-03-27T11:33:10.457Z,3.78
2023-03-27T11:35:52.225Z,5.95
2023-03-27T11:39:01.618Z,3.90
2023-03-27T11:41:29.212Z,5.45
2023-03-27T11:44:01.546Z,4.38
2023-03-27T11:47:19.689Z,7.70
2023-03-27T11:50:07.976Z,7.78
2023-03-27T11:52:44.765Z,6.97
2023-03-27T11:55:26.078Z,18.52
2023-03-27T11:58:00.960Z,35.25
2023-03-27T12:00:54.385Z,6.63
2023-03-27T12:03:25.329Z,5.13
2023-03-27T12:06:02.854Z,3.63
2023-03-27T12:08:43.031Z,3.53
2023-03-27T12:11:12.531Z,3.42
2023-03-27T12:14:00.933Z,5.97
2023-03-27T12:16:52.573Z,8.63
2023-03-27T12:19:41.838Z,8.38
2023-03-27T12:22:46.166Z,4.75
2023-03-27T12:25:37.799Z,7.22
2023-03-27T12:28:23.914Z,7.95
2023-03-27T12:31:11.704Z,8.80
2023-03-27T12:33:42.382Z,10.77
2023-03-27T12:36:12.685Z,7.60
2023-03-27T12:38:42.002Z,5.53
2023-03-27T12:41:13.006Z,5.93
2023-03-27T12:44:00.858Z,7.47
2023-03-27T12:46:36.795Z,6.32
2023-03-27T12:49:11.969Z,7.82
2023-03-27T12:51:51.888Z,6.45
2023-03-27T12:54:40.278Z,10.45
2023-03-27T12:57:44.434Z,9.73
2023-03-27T13:00:25.600Z,9.23
2023-03-27T13:02:54.108Z,13.13
2023-03-27T13:05:27.727Z,13.88
2023-03-27T13:08:15.127Z,11.20
2023-03-27T13:11:17.484Z,14.60
2023-03-27T13:14:00.358Z,11.00
2023-03-27T13:16:27.946Z,13.73
2023-03-27T13:19:02.275Z,10.95
2023-03-27T13:21:48.789Z,12.18
2023-03-27T13:24:25.680Z,9.25
2023-03-27T13:26:57.096Z,10.95
2023-03-27T13:29:27.113Z,10.05
2023-03-27T13:32:06.220Z,8.98
2023-03-27T13:35:09.852Z,9.85
2023-03-27T13:37:41.910Z,11.35
2023-03-27T13:40:23.267Z,10.70
2023-03-27T13:43:03.140Z,9.63
2023-03-27T13:45:38.625Z,9.43
2023-03-27T13:48:50.465Z,8.07
2023-03-27T13:51:40.192Z,8.93
2023-03-27T13:54:28.562Z,7.50
2023-03-27T13:56:56.049Z,10.13
2023-03-27T13:59:58.678Z,8.65
2023-03-27T14:02:46.466Z,10.40
2023-03-27T14:05:18.408Z,8.70
2023-03-27T14:07:46.116Z,7.32
2023-03-27T14:10:35.891Z,8.23
2023-03-27T14:13:07.639Z,9.80
2023-03-27T14:16:04.245Z,10.88
2023-03-27T14:19:00.389Z,8.88
2023-03-27T14:21:38.541Z,12.68
2023-03-27T14:24:28.161Z,8.32
2023-03-27T14:27:07.093Z,12.93
2023-03-27T14:29:38.100Z,10.13
2023-03-27T14:32:06.676Z,7.32
2023-03-27T14:34:47.304Z,9.57
2023-03-27T14:37:42.820Z,9.13
2023-03-27T14:40:27.286Z,9.98
2023-03-27T14:42:58.858Z,9.68
2023-03-27T14:45:29.862Z,8.65
2023-03-27T14:48:17.554Z,7.80
2023-03-27T14:50:48.811Z,8.40
2023-03-27T14:53:22.038Z,7.38
2023-03-27T14:56:11.700Z,9.88
2023-03-27T14:59:03.147Z,8.75
2023-03-27T15:01:47.724Z,9.82
2023-03-27T15:04:15.603Z,8.93
2023-03-27T15:06:45.650Z,9.02
2023-03-27T15:09:24.975Z,10.27
2023-03-27T15:11:59.145Z,9.55
2023-03-27T15:14:32.257Z,9.15
2023-03-27T15:17:02.921Z,9.05
2023-03-27T15:19:43.275Z,8.25
2023-03-27T15:22:24.472Z,9.18
2023-03-27T15:24:56.951Z,10.75
2023-03-27T15:27:28.588Z,8.82
2023-03-27T15:29:59.118Z,10.23
2023-03-27T15:32:30.177Z,9.98
2023-03-27T15:34:59.446Z,10.13
2023-03-27T15:37:28.665Z,10.13
2023-03-27T15:40:13.432Z,11.15
2023-03-27T15:42:49.183Z,10.90
2023-03-27T15:45:18.166Z,13.48
2023-03-27T15:47:57.886Z,16.13
2023-03-27T15:50:28.064Z,12.57
2023-03-27T15:52:58.230Z,15.38
2023-03-27T15:55:37.944Z,17.17
2023-03-27T15:58:24.216Z,25.45
2023-03-27T16:00:53.118Z,18.73
2023-03-27T16:03:22.570Z,18.95
2023-03-27T16:05:52.459Z,16.85
2023-03-27T16:08:34.528Z,19.80
2023-03-27T16:11:02.490Z,18.45
2023-03-27T16:13:34.624Z,19.70
2023-03-27T16:16:07.114Z,23.52
2023-03-27T16:18:35.791Z,22.80
2023-03-27T16:21:10.839Z,24.75
2023-03-27T16:26:06.929Z,22.65
2023-03-27T16:28:34.503Z,28.38
2023-03-27T16:31:10.808Z,27.50
2023-03-27T16:33:38.452Z,30.08
2023-03-27T16:36:05.990Z,28.95
2023-03-27T16:38:35.444Z,32.60
2023-03-27T16:41:02.822Z,34.13
2023-03-27T16:43:30.276Z,31.27
2023-03-27T16:45:57.883Z,29.63
2023-03-27T16:48:25.528Z,21.60
2023-03-27T16:50:53.012Z,21.67
2023-03-27T16:53:20.550Z,18.67
2023-03-27T16:55:50.928Z,18.67
2023-03-27T16:58:18.361Z,20.08
2023-03-27T17:00:45.868Z,21.30
2023-03-27T17:03:13.486Z,19.50
2023-03-27T17:05:43.081Z,16.75
2023-03-27T17:08:11.370Z,16.65
2023-03-27T17:10:38.846Z,19.60
2023-03-27T17:13:06.704Z,18.80
2023-03-27T17:15:36.916Z,16.08
2023-03-27T17:18:04.772Z,14.85
2023-03-27T17:20:32.185Z,15.65
2023-03-27T17:22:59.746Z,18.73
2023-03-27T17:25:27.862Z,18.33
2023-03-27T17:27:55.365Z,19.00
2023-03-27T17:30:36.725Z,16.48
2023-03-27T17:33:07.208Z,19.25
2023-03-27T17:35:34.635Z,17.88
2023-03-27T17:38:02.771Z,16.38
2023-03-27T17:40:30.164Z,15.27
2023-03-27T17:42:57.570Z,13.65
2023-03-27T17:45:25.058Z,16.30
2023-03-27T17:47:52.568Z,14.30
2023-03-27T17:50:20.167Z,15.15
2023-03-27T17:52:47.810Z,13.55
2023-03-27T17:55:15.523Z,11.90
2023-03-27T17:57:43.089Z,12.63
2023-03-27T18:00:12.156Z,13.65
2023-03-27T18:02:42.524Z,13.93
2023-03-27T18:05:10.183Z,11.93
2023-03-27T18:07:37.603Z,15.15
2023-03-27T18:10:05.564Z,12.43
2023-03-27T18:12:33.579Z,16.15
2023-03-27T18:15:00.981Z,14.13
2023-03-27T18:17:28.427Z,16.98
2023-03-27T18:19:55.848Z,14.43
2023-03-27T18:22:23.444Z,13.20
2023-03-27T18:24:51.039Z,14.15
2023-03-27T18:27:18.587Z,15.77
2023-03-27T18:29:46.007Z,15.88
2023-03-27T18:32:13.553Z,15.05
2023-03-27T18:34:41.369Z,14.45
2023-03-27T18:37:08.834Z,18.23
2023-03-27T18:39:37.551Z,15.43
2023-03-27T18:42:05.559Z,15.02
2023-03-27T18:44:33.065Z,11.55
2023-03-27T18:47:00.706Z,14.73
2023-03-27T18:49:28.153Z,15.68
2023-03-27T18:51:55.657Z,13.43
2023-03-27T18:54:23.061Z,16.33
2023-03-27T18:56:52.043Z,12.00
2023-03-27T18:59:19.705Z,16.75
2023-03-27T19:01:47.215Z,14.23
2023-03-27T19:04:17.113Z,15.70
2023-03-27T19:06:46.483Z,17.13
2023-03-27T19:09:14.442Z,17.60
2023-03-27T19:11:43.977Z,14.48
2023-03-27T19:14:31.827Z,15.10
2023-03-27T19:17:34.695Z,17.83
2023-03-27T19:20:22.559Z,16.08
2023-03-27T19:22:51.784Z,15.85
2023-03-27T19:25:29.579Z,13.13
2023-03-27T19:27:57.026Z,13.82
2023-03-27T19:30:24.601Z,11.77
2023-03-27T19:32:55.107Z,11.13
2023-03-27T19:35:22.676Z,9.18
2023-03-27T19:37:50.301Z,9.60
2023-03-27T19:40:20.374Z,9.30
2023-03-27T19:42:48.323Z,11.00
2023-03-27T19:45:16.240Z,17.17
2023-03-27T19:47:47.129Z,10.13
2023-03-27T19:50:14.944Z,12.60
2023-03-27T19:53:14.571Z,8.43
2023-03-27T19:55:43.078Z,8.50
2023-03-27T19:58:10.879Z,7.68
2023-03-27T20:00:38.529Z,7.47
2023-03-27T20:03:10.426Z,8.45
2023-03-27T20:05:39.529Z,10.95
2023-03-27T20:08:07.160Z,8.77
2023-03-27T20:10:34.574Z,8.48
2023-03-27T20:13:01.979Z,7.15
2023-03-27T20:15:29.883Z,6.72
2023-03-27T20:17:57.489Z,8.32
2023-03-27T20:20:25.000Z,8.05
2023-03-27T20:22:57.986Z,6.50
2023-03-27T20:25:28.055Z,6.72
2023-03-27T20:27:56.256Z,6.60
2023-03-27T20:30:23.706Z,7.18
2023-03-27T20:32:51.316Z,6.63
2023-03-27T20:35:24.409Z,6.30
2023-03-27T20:37:56.144Z,6.45
2023-03-27T20:40:25.756Z,7.00
2023-03-27T20:43:03.431Z,5.55
2023-03-27T20:45:31.507Z,6.53
2023-03-27T20:48:03.227Z,7.47
2023-03-27T20:50:31.763Z,8.50
2023-03-27T20:52:59.180Z,7.20
2023-03-27T20:58:00.200Z,6.63
2023-03-27T21:00:27.961Z,8.43
2023-03-27T21:02:55.760Z,7.93
2023-03-27T21:05:23.212Z,7.78
2023-03-27T21:07:51.320Z,7.68
2023-03-27T21:10:22.100Z,7.95
2023-03-27T21:12:51.120Z,8.80
2023-03-27T21:15:18.556Z,8.77
2023-03-27T21:17:46.222Z,7.55
2023-03-27T21:20:13.724Z,9.52
2023-03-27T21:22:41.135Z,7.00
2023-03-27T21:25:08.861Z,8.18
2023-03-27T21:27:36.355Z,7.70
2023-03-27T21:30:04.157Z,6.72
2023-03-27T21:32:31.539Z,8.65
2023-03-27T21:34:58.970Z,7.13
2023-03-27T21:37:26.408Z,8.38
2023-03-27T21:39:53.794Z,6.93
2023-03-27T21:42:21.894Z,7.28
2023-03-27T21:44:53.739Z,7.15
2023-03-27T21:47:24.939Z,7.03
2023-03-27T21:49:57.055Z,6.25
2023-03-27T21:52:24.629Z,7.72
2023-03-27T21:55:02.554Z,7.32
2023-03-27T21:57:31.013Z,8.73
2023-03-27T21:59:58.672Z,6.93
2023-03-27T22:02:26.239Z,7.70
2023-03-27T22:04:53.795Z,7.35
2023-03-27T22:07:21.440Z,7.60
2023-03-27T22:09:48.830Z,7.75
2023-03-27T22:12:16.780Z,7.82
2023-03-27T22:14:44.267Z,8.80
2023-03-27T22:17:11.707Z,8.25
2023-03-27T22:19:39.192Z,9.13
2023-03-27T22:22:06.531Z,8.18
2023-03-27T22:24:33.952Z,9.80
2023-03-27T22:27:01.706Z,9.40
2023-03-27T22:29:29.174Z,8.98
2023-03-27T22:31:56.535Z,9.05
2023-03-27T22:34:24.032Z,8.38
2023-03-27T22:36:51.386Z,7.10
2023-03-27T22:39:18.845Z,7.53
2023-03-27T22:41:46.252Z,6.50
2023-03-27T22:44:13.711Z,6.15
2023-03-27T22:46:41.198Z,5.55
2023-03-27T22:49:08.711Z,5.35
2023-03-27T22:51:36.184Z,5.93
2023-03-27T22:54:03.589Z,5.72
2023-03-27T22:56:31.109Z,6.20
2023-03-27T22:58:58.696Z,3.97
2023-03-27T23:01:26.258Z,4.82
2023-03-27T23:03:53.931Z,5.05
2023-03-27T23:06:22.952Z,5.60
2023-03-27T23:08:50.849Z,4.90
2023-03-27T23:11:18.903Z,4.20
2023-03-27T23:13:46.530Z,6.45
2023-03-27T23:16:14.080Z,5.18
2023-03-27T23:18:41.699Z,3.45
2023-03-27T23:21:13.134Z,3.80
2023-03-27T23:23:41.323Z,4.57
2023-03-27T23:26:09.276Z,5.25
2023-03-27T23:28:38.375Z,4.95
2023-03-27T23:31:07.009Z,8.05
2023-03-27T23:33:36.148Z,5.75
2023-03-27T23:36:08.089Z,6.13
2023-03-27T23:38:37.305Z,5.68
2023-03-27T23:41:07.277Z,5.22
2023-03-27T23:43:35.100Z,5.60
2023-03-27T23:46:04.137Z,5.05
2023-03-27T23:48:31.815Z,5.82
2023-03-27T23:50:59.232Z,6.07
2023-03-27T23:53:27.667Z,5.00
2023-03-27T23:55:56.319Z,7.13
2023-03-27T23:58:24.525Z,5.78
